Missoula International Airport
KMSO : rendu visible

Aérodrome :











RETROUVEZ-NOUS SUR...

 
LOGIN :

S'inscrire | Disclaimer

   EN    FR    IT 

 









Légende :    VFR   VFR Marginal   IFR   IFR Intensif   IFR Très Intensif
Visi : 
Plafond : 
>= 8 km
>= 3000ft
5 à 8 km
1000 à 3000 ft
1500m à 5 km
500 à 1000 ft
800 à 1500m
200 à 500 ft
< 800m
< 200 ft
Symboles :   Orages  Brouillard  Fortes neiges  Fortes précipitations  Vent > 20 kt






- Altitude de l'aérodrome : 3206 ft
- Code IATA : MSO


KMSO - Missoula International

DERNIER METAR :
  • 221553Z 00000KT 6SM BR FEW070 M08/M09 A3006 RMK AO2 SLP223 T10781094

METARs EXPIRÉS :
  • 221453Z 00000KT 10SM CLR M09/M11 A3005 RMK AO2 SLP220 I3000 T10891106 58007
  • 221353Z 00000KT 10SM CLR M09/M11 A3007 RMK AO2 SLP228 T10941111

TAF KMSO
Valide du 22 à 12h jusqu'au 23 à 12h UTC


221120Z 2212/2312 00000KT P6SM SKC
FM221800 24003KT P6SM BKN100



MET'MAP, la Météo Aéronautique d'un coup d'oeil ! - Copyright ORBIFLY Décembre 2007 - Disclaimer

ORBIFLY MET'MAP TEAM :

Programmation & Développement : Alexandra Zaïnal
Sur une idée originale de : Baudouin d'Aumeries
Assistance à la programmation : Marc-Olivier Méhu
Soutien technique & logistique : Manuel Goepfert

Contact : metmap@orbifly.com




SOURCES & CREDITS :

   NOAA       Earth
Advisory